createdAt,value
2024-05-09T00:00:43.837Z,100295.61
2024-05-09T00:03:12.245Z,100293.88
2024-05-09T00:05:41.097Z,100293.67
2024-05-09T00:08:09.528Z,100294.58
2024-05-09T00:10:39.089Z,100295.26
2024-05-09T00:13:07.999Z,100296.48
2024-05-09T00:15:36.446Z,100297.31
2024-05-09T00:18:05.330Z,100294.67
2024-05-09T00:20:38.799Z,100296.40
2024-05-09T00:23:10.252Z,100292.35
2024-05-09T00:25:38.094Z,100292.91
2024-05-09T00:28:06.085Z,100295.05
2024-05-09T00:30:36.133Z,100295.42
2024-05-09T00:33:06.524Z,100300.27
2024-05-09T00:35:35.545Z,100300.35
2024-05-09T00:38:03.716Z,100301.31
2024-05-09T00:40:41.600Z,100300.88
2024-05-09T00:43:11.846Z,100307.39
2024-05-09T00:45:40.302Z,100302.25
2024-05-09T00:48:09.069Z,100299.80
2024-05-09T00:50:39.895Z,100298.70
2024-05-09T00:53:08.200Z,100300.79
2024-05-09T00:55:35.776Z,100299.56
2024-05-09T00:58:03.774Z,100299.38
2024-05-09T01:00:37.974Z,100296.91
2024-05-09T01:03:09.769Z,100298.65
2024-05-09T01:05:39.674Z,100301.04
2024-05-09T01:08:09.050Z,100302.69
2024-05-09T01:10:37.752Z,100299.69
2024-05-09T01:13:05.627Z,100304.19
2024-05-09T01:15:33.939Z,100302.70
2024-05-09T01:18:10.459Z,100307.31
2024-05-09T01:20:42.468Z,100301.84
2024-05-09T01:23:13.965Z,100307.27
2024-05-09T01:25:43.806Z,100312.54
2024-05-09T01:28:11.454Z,100312.96
2024-05-09T01:30:39.091Z,100311.04
2024-05-09T01:33:08.874Z,100313.83
2024-05-09T01:35:38.686Z,100310.48
2024-05-09T01:38:07.869Z,100309.14
2024-05-09T01:40:38.792Z,100319.77
2024-05-09T01:43:09.751Z,100318.05
2024-05-09T01:45:38.725Z,100319.27
2024-05-09T01:48:06.690Z,100323.11
2024-05-09T01:50:39.469Z,100321.87
2024-05-09T01:53:10.705Z,100328.86
2024-05-09T01:55:38.576Z,100327.17
2024-05-09T01:58:06.112Z,100331.58
2024-05-09T02:00:39.139Z,100332.09
2024-05-09T02:03:13.364Z,100332.79
2024-05-09T02:05:47.709Z,100336.84
2024-05-09T02:08:17.492Z,100341.86
2024-05-09T02:10:46.380Z,100343.52
2024-05-09T02:13:14.200Z,100346.23
2024-05-09T02:15:41.982Z,100353.67
2024-05-09T02:18:10.163Z,100358.88
2024-05-09T02:20:38.734Z,100361.32
2024-05-09T02:23:06.968Z,100366.91
2024-05-09T02:25:35.026Z,100367.11
2024-05-09T02:28:02.581Z,100373.42
2024-05-09T02:30:38.570Z,100370.34
2024-05-09T02:33:10.600Z,100376.51
2024-05-09T02:35:40.022Z,100374.29
2024-05-09T02:38:08.814Z,100378.01
2024-05-09T02:40:38.763Z,100381.11
2024-05-09T02:43:08.173Z,100384.45
2024-05-09T02:45:36.346Z,100385.89
2024-05-09T02:48:04.260Z,100391.23
2024-05-09T02:50:37.916Z,100399.06
2024-05-09T02:53:08.601Z,100401.81
2024-05-09T02:55:38.026Z,100403.32
2024-05-09T02:58:08.783Z,100406.05
2024-05-09T03:00:39.921Z,100406.52
2024-05-09T03:03:12.524Z,100411.02
2024-05-09T03:05:43.136Z,100409.00
2024-05-09T03:08:11.146Z,100411.19
2024-05-09T03:10:39.529Z,100416.77
2024-05-09T03:13:08.172Z,100417.07
2024-05-09T03:15:36.164Z,100421.34
2024-05-09T03:18:04.974Z,100422.38
2024-05-09T03:20:35.065Z,100425.81
2024-05-09T03:23:05.220Z,100425.73
2024-05-09T03:25:33.412Z,100424.98
2024-05-09T03:28:01.098Z,100422.88
2024-05-09T03:30:38.967Z,100423.70
2024-05-09T03:33:15.632Z,100430.80
2024-05-09T03:35:43.813Z,100429.90
2024-05-09T03:38:11.345Z,100432.61
2024-05-09T03:40:45.329Z,100433.08
2024-05-09T03:43:13.473Z,100433.88
2024-05-09T03:45:42.323Z,100436.81
2024-05-09T03:48:10.224Z,100439.93
2024-05-09T03:50:38.268Z,100439.20
2024-05-09T03:53:06.847Z,100443.67
2024-05-09T03:55:34.692Z,100442.56
2024-05-09T03:58:02.333Z,100443.91
2024-05-09T04:00:37.095Z,100444.42
2024-05-09T04:03:09.062Z,100445.08
2024-05-09T04:05:40.689Z,100444.48
2024-05-09T04:08:09.915Z,100447.91
2024-05-09T04:10:37.805Z,100450.80
2024-05-09T04:13:05.540Z,100451.42
2024-05-09T04:15:33.882Z,100455.17
2024-05-09T04:18:02.400Z,100453.34
2024-05-09T04:20:37.689Z,100455.48
2024-05-09T04:23:11.379Z,100453.23
2024-05-09T04:25:43.598Z,100454.78
2024-05-09T04:28:11.691Z,100455.84
2024-05-09T04:30:41.122Z,100453.55
2024-05-09T04:33:14.240Z,100453.08
2024-05-09T04:35:43.307Z,100457.46
2024-05-09T04:38:12.365Z,100457.61
2024-05-09T04:40:40.167Z,100457.14
2024-05-09T04:43:14.283Z,100457.91
2024-05-09T04:45:41.753Z,100464.08
2024-05-09T04:48:09.884Z,100463.95
2024-05-09T04:50:39.321Z,100469.25
2024-05-09T04:53:09.887Z,100470.57
2024-05-09T04:55:40.069Z,100469.41
2024-05-09T04:58:11.660Z,100470.44
2024-05-09T05:00:40.493Z,100468.10
2024-05-09T05:03:12.885Z,100462.86
2024-05-09T05:05:43.698Z,100469.03
2024-05-09T05:08:15.310Z,100471.02
2024-05-09T05:10:43.278Z,100474.92
2024-05-09T05:13:22.715Z,100473.41
2024-05-09T05:15:58.241Z,100468.52
2024-05-09T05:18:27.410Z,100466.39
2024-05-09T05:20:55.776Z,100462.17
2024-05-09T05:23:23.664Z,100466.84
2024-05-09T05:25:55.060Z,100467.68
2024-05-09T05:28:22.957Z,100466.69
2024-05-09T05:30:50.584Z,100467.29
2024-05-09T05:33:19.484Z,100469.19
2024-05-09T05:35:47.585Z,100476.81
2024-05-09T05:38:15.262Z,100475.11
2024-05-09T05:40:42.844Z,100478.69
2024-05-09T05:43:17.208Z,100479.43
2024-05-09T05:45:45.341Z,100479.75
2024-05-09T05:48:14.138Z,100478.24
2024-05-09T05:50:42.878Z,100478.89
2024-05-09T05:53:10.816Z,100480.77
2024-05-09T05:55:39.886Z,100476.14
2024-05-09T05:58:11.058Z,100476.54
2024-05-09T06:00:40.366Z,100473.64
2024-05-09T06:03:09.630Z,100477.14
2024-05-09T06:05:43.310Z,100475.39
2024-05-09T06:08:11.311Z,100474.20
2024-05-09T06:10:40.722Z,100479.38
2024-05-09T06:13:12.363Z,100481.72
2024-05-09T06:15:40.820Z,100479.27
2024-05-09T06:18:09.567Z,100479.53
2024-05-09T06:20:39.868Z,100483.76
2024-05-09T06:23:08.801Z,100478.69
2024-05-09T06:25:36.602Z,100483.58
2024-05-09T06:28:05.111Z,100482.65
2024-05-09T06:30:38.720Z,100480.90
2024-05-09T06:33:10.782Z,100482.36
2024-05-09T06:35:40.688Z,100476.09
2024-05-09T06:38:09.012Z,100473.70
2024-05-09T06:40:40.807Z,100475.66
2024-05-09T06:43:13.498Z,100469.60
2024-05-09T06:45:41.245Z,100474.27
2024-05-09T06:48:09.424Z,100476.30
2024-05-09T06:50:39.331Z,100476.15
2024-05-09T06:53:08.285Z,100475.66
2024-05-09T06:55:36.688Z,100479.52
2024-05-09T06:58:05.497Z,100480.64
2024-05-09T07:00:38.904Z,100478.21
2024-05-09T07:03:10.116Z,100474.61
2024-05-09T07:05:38.366Z,100473.59
2024-05-09T07:08:06.417Z,100470.64
2024-05-09T07:10:36.173Z,100476.31
2024-05-09T07:13:11.690Z,100477.50
2024-05-09T07:15:39.993Z,100480.36
2024-05-09T07:18:11.754Z,100477.14
2024-05-09T07:20:40.221Z,100481.33
2024-05-09T07:23:13.910Z,100483.26
2024-05-09T07:25:42.126Z,100482.93
2024-05-09T07:28:20.765Z,100479.41
2024-05-09T07:30:48.440Z,100480.67
2024-05-09T07:33:21.217Z,100484.52
2024-05-09T07:35:50.588Z,100477.39
2024-05-09T07:38:18.214Z,100480.90
2024-05-09T07:40:45.824Z,100479.33
2024-05-09T07:43:14.663Z,100473.25
2024-05-09T07:45:50.833Z,100473.13
2024-05-09T07:52:37.288Z,100475.88
2024-05-09T07:53:46.441Z,100470.33
2024-05-09T07:56:18.350Z,100471.15
2024-05-09T07:58:46.785Z,100479.34
2024-05-09T08:01:14.393Z,100474.36
2024-05-09T08:03:42.207Z,100476.91
2024-05-09T08:06:09.983Z,100476.85
2024-05-09T08:08:37.454Z,100477.58
2024-05-09T08:11:06.450Z,100478.30
2024-05-09T08:13:34.163Z,100471.98
2024-05-09T08:16:01.712Z,100469.44
2024-05-09T08:18:29.608Z,100474.05
2024-05-09T08:20:57.850Z,100475.63
2024-05-09T08:23:25.363Z,100470.84
2024-05-09T08:25:53.036Z,100470.70
2024-05-09T08:28:21.067Z,100468.32
2024-05-09T08:30:48.714Z,100472.50
2024-05-09T08:33:16.619Z,100471.79
2024-05-09T08:35:44.458Z,100468.48
2024-05-09T08:38:11.961Z,100466.23
2024-05-09T08:40:39.600Z,100461.19
2024-05-09T08:43:09.001Z,100465.46
2024-05-09T08:45:38.856Z,100464.62
2024-05-09T08:49:15.908Z,100459.70
2024-05-09T08:51:43.844Z,100455.25
2024-05-09T08:54:11.223Z,100455.83
2024-05-09T08:56:39.649Z,100455.30
2024-05-09T08:59:08.994Z,100455.45
2024-05-09T09:01:37.973Z,100457.01
2024-05-09T09:04:07.155Z,100449.92
2024-05-09T09:06:34.789Z,100448.69
2024-05-09T09:09:03.496Z,100447.10
2024-05-09T09:11:31.024Z,100446.95
2024-05-09T09:13:58.677Z,100442.92
2024-05-09T09:16:35.836Z,100440.40
2024-05-09T09:19:06.662Z,100440.64
2024-05-09T09:21:35.053Z,100437.21
2024-05-09T09:24:02.871Z,100434.59
2024-05-09T09:26:30.813Z,100429.52
2024-05-09T09:29:04.435Z,100427.80
2024-05-09T09:31:32.138Z,100419.94
2024-05-09T09:34:04.750Z,100422.57
2024-05-09T09:36:32.691Z,100418.41
2024-05-09T09:39:00.202Z,100420.60
2024-05-09T09:41:27.993Z,100424.81
2024-05-09T09:43:57.347Z,100422.04
2024-05-09T09:46:24.788Z,100416.98
2024-05-09T09:48:52.517Z,100416.17
2024-05-09T09:51:20.387Z,100412.70
2024-05-09T09:53:47.824Z,100408.27
2024-05-09T09:56:15.411Z,100402.58
2024-05-09T09:58:42.973Z,100404.23
2024-05-09T10:01:10.527Z,100401.19
2024-05-09T10:03:38.558Z,100403.21
2024-05-09T10:06:06.947Z,100394.19
2024-05-09T10:08:35.076Z,100390.54
2024-05-09T10:11:04.072Z,100395.86
2024-05-09T10:13:35.355Z,100401.45
2024-05-09T10:16:10.365Z,100394.77
2024-05-09T10:18:41.973Z,100394.23
2024-05-09T10:21:19.382Z,100387.86
2024-05-09T10:23:58.328Z,100387.86
2024-05-09T10:26:35.755Z,100380.53
2024-05-09T10:29:17.018Z,100379.33
2024-05-09T10:31:46.040Z,100382.13
2024-05-09T10:34:23.805Z,100385.27
2024-05-09T10:36:52.750Z,100377.24
2024-05-09T10:39:21.354Z,100369.28
2024-05-09T10:41:49.585Z,100368.55
2024-05-09T10:44:17.373Z,100371.52
2024-05-09T10:46:46.149Z,100370.98
2024-05-09T10:49:14.017Z,100367.55
2024-05-09T10:51:41.799Z,100370.07
2024-05-09T10:54:09.285Z,100366.77
2024-05-09T10:56:36.916Z,100368.20
2024-05-09T10:59:04.467Z,100361.80
2024-05-09T11:01:32.132Z,100358.23
2024-05-09T11:04:00.024Z,100353.91
2024-05-09T11:06:27.763Z,100352.79
2024-05-09T11:08:55.509Z,100347.33
2024-05-09T11:11:23.139Z,100346.52
2024-05-09T11:13:50.796Z,100350.70
2024-05-09T11:16:20.625Z,100347.34
2024-05-09T11:18:58.602Z,100347.80
2024-05-09T11:21:26.971Z,100349.08
2024-05-09T11:23:54.628Z,100345.63
2024-05-09T11:26:22.750Z,100343.85
2024-05-09T11:28:50.771Z,100344.42
2024-05-09T11:31:18.957Z,100342.22
2024-05-09T11:33:47.092Z,100343.85
2024-05-09T11:36:14.820Z,100344.17
2024-05-09T11:38:42.599Z,100342.00
2024-05-09T11:41:18.030Z,100335.67
2024-05-09T11:43:45.656Z,100334.61
2024-05-09T11:46:13.622Z,100336.02
2024-05-09T11:48:41.745Z,100336.17
2024-05-09T11:51:09.428Z,100342.54
2024-05-09T11:53:36.811Z,100340.34
2024-05-09T11:56:04.839Z,100337.48
2024-05-09T11:58:34.502Z,100336.37
2024-05-09T12:01:02.247Z,100330.67
2024-05-09T12:03:30.216Z,100325.80
2024-05-09T12:05:58.051Z,100325.38
2024-05-09T12:08:25.584Z,100323.18
2024-05-09T12:10:53.850Z,100319.66
2024-05-09T12:13:21.744Z,100314.52
2024-05-09T12:15:49.476Z,100316.29
2024-05-09T12:18:17.164Z,100315.36
2024-05-09T12:20:44.960Z,100307.75
2024-05-09T12:23:12.460Z,100305.84
2024-05-09T12:25:40.367Z,100304.02
2024-05-09T12:28:08.487Z,100295.40
2024-05-09T12:30:40.030Z,100291.31
2024-05-09T12:33:13.124Z,100290.95
2024-05-09T12:35:44.086Z,100290.00
2024-05-09T12:38:14.919Z,100289.83
2024-05-09T12:40:42.867Z,100290.31
2024-05-09T12:43:11.411Z,100283.92
2024-05-09T12:45:40.392Z,100278.70
2024-05-09T12:48:11.904Z,100279.51
2024-05-09T12:50:40.568Z,100276.25
2024-05-09T12:53:08.317Z,100273.46
2024-05-09T12:55:44.479Z,100268.73
2024-05-09T12:58:22.343Z,100263.25
2024-05-09T13:00:51.698Z,100259.33
2024-05-09T13:03:19.518Z,100260.14
2024-05-09T13:05:47.375Z,100258.32
2024-05-09T13:08:14.845Z,100259.91
2024-05-09T13:10:42.617Z,100257.39
2024-05-09T13:13:10.483Z,100248.86
2024-05-09T13:15:38.238Z,100246.30
2024-05-09T13:18:06.207Z,100241.52
2024-05-09T13:20:36.091Z,100245.14
2024-05-09T13:23:05.432Z,100246.77
2024-05-09T13:25:36.524Z,100242.66
2024-05-09T13:28:04.698Z,100240.34
2024-05-09T13:30:39.013Z,100239.07
2024-05-09T13:33:11.523Z,100237.48
2024-05-09T13:35:45.566Z,100235.65
2024-05-09T13:38:20.940Z,100233.40
2024-05-09T13:40:49.365Z,100234.12
2024-05-09T13:43:18.536Z,100233.98
2024-05-09T13:45:46.827Z,100230.09
2024-05-09T13:48:14.525Z,100225.82
2024-05-09T13:50:42.097Z,100224.53
2024-05-09T13:53:09.594Z,100225.04
2024-05-09T13:55:38.130Z,100223.38
2024-05-09T13:58:06.312Z,100226.98
2024-05-09T14:00:44.126Z,100226.27
2024-05-09T14:03:17.018Z,100226.04
2024-05-09T14:05:46.606Z,100216.78
2024-05-09T14:08:15.607Z,100218.25
2024-05-09T14:10:46.716Z,100216.33
2024-05-09T14:13:14.873Z,100213.78
2024-05-09T14:15:42.462Z,100215.35
2024-05-09T14:18:13.246Z,100211.55
2024-05-09T14:20:42.695Z,100204.23
2024-05-09T14:23:10.430Z,100204.92
2024-05-09T14:25:42.107Z,100200.50
2024-05-09T14:28:12.437Z,100203.60
2024-05-09T14:30:41.512Z,100202.58
2024-05-09T14:33:09.734Z,100205.87
2024-05-09T14:35:38.653Z,100201.45
2024-05-09T14:38:07.500Z,100203.18
2024-05-09T14:40:41.363Z,100204.30
2024-05-09T14:43:12.496Z,100202.59
2024-05-09T14:45:40.769Z,100205.31
2024-05-09T14:48:08.605Z,100202.69
2024-05-09T14:50:39.211Z,100202.20
2024-05-09T14:53:08.820Z,100203.34
2024-05-09T14:55:37.578Z,100202.52
2024-05-09T14:58:09.759Z,100201.39
2024-05-09T15:00:41.493Z,100194.41
2024-05-09T15:03:12.614Z,100194.73
2024-05-09T15:05:40.453Z,100193.22
2024-05-09T15:08:08.236Z,100192.27
2024-05-09T15:10:37.183Z,100191.27
2024-05-09T15:13:07.138Z,100193.50
2024-05-09T15:15:36.822Z,100192.84
2024-05-09T15:18:06.890Z,100193.42
2024-05-09T15:20:36.936Z,100192.45
2024-05-09T15:23:06.398Z,100192.66
2024-05-09T15:25:34.989Z,100192.48
2024-05-09T15:28:02.816Z,100185.72
2024-05-09T15:30:33.159Z,100186.11
2024-05-09T15:33:03.375Z,100181.33
2024-05-09T15:35:31.314Z,100180.21
2024-05-09T15:37:59.041Z,100181.02
2024-05-09T15:40:35.632Z,100179.55
2024-05-09T15:43:07.977Z,100179.52
2024-05-09T15:45:36.088Z,100177.48
2024-05-09T15:48:04.528Z,100183.19
2024-05-09T15:50:38.210Z,100183.84
2024-05-09T15:53:09.883Z,100181.64
2024-05-09T15:55:38.509Z,100179.86
2024-05-09T15:58:06.832Z,100179.22
2024-05-09T16:00:39.371Z,100180.88
2024-05-09T16:03:10.791Z,100181.70
2024-05-09T16:05:39.269Z,100182.20
2024-05-09T16:08:07.603Z,100183.01
2024-05-09T16:10:36.466Z,100182.44
2024-05-09T16:13:04.972Z,100182.58
2024-05-09T16:15:32.616Z,100178.53
2024-05-09T16:18:00.749Z,100180.11
2024-05-09T16:20:37.976Z,100176.96
2024-05-09T16:23:08.934Z,100175.30
2024-05-09T16:25:37.187Z,100176.65
2024-05-09T16:28:08.369Z,100172.52
2024-05-09T16:30:39.407Z,100177.66
2024-05-09T16:33:07.885Z,100173.39
2024-05-09T16:35:36.886Z,100172.13
2024-05-09T16:38:08.439Z,100172.34
2024-05-09T16:40:39.815Z,100172.75
2024-05-09T16:43:10.450Z,100177.30
2024-05-09T16:45:39.366Z,100176.21
2024-05-09T16:48:07.629Z,100173.38
2024-05-09T16:50:36.611Z,100172.73
2024-05-09T16:53:05.636Z,100170.02
2024-05-09T16:55:34.735Z,100172.52
2024-05-09T16:58:03.241Z,100172.92
2024-05-09T17:00:39.362Z,100173.67
2024-05-09T17:03:12.855Z,100173.13
2024-05-09T17:05:41.751Z,100173.01
2024-05-09T17:08:10.145Z,100175.52
2024-05-09T17:10:39.046Z,100171.17
2024-05-09T17:13:07.803Z,100176.02
2024-05-09T17:15:37.339Z,100175.78
2024-05-09T17:18:06.583Z,100172.42
2024-05-09T17:20:36.778Z,100173.45
2024-05-09T17:23:06.237Z,100174.84
2024-05-09T17:25:34.666Z,100171.80
2024-05-09T17:28:07.134Z,100170.07
2024-05-09T17:30:38.026Z,100170.10
2024-05-09T17:33:08.244Z,100172.17
2024-05-09T17:35:36.888Z,100176.77
2024-05-09T17:38:07.565Z,100182.38
2024-05-09T17:40:37.261Z,100183.95
2024-05-09T17:43:08.700Z,100186.50
2024-05-09T17:45:39.690Z,100188.49
2024-05-09T17:48:09.567Z,100191.35
2024-05-09T17:50:38.112Z,100192.60
2024-05-09T17:53:06.436Z,100195.42
2024-05-09T17:55:35.104Z,100200.50
2024-05-09T17:58:03.583Z,100203.17
2024-05-09T18:00:37.951Z,100200.09
2024-05-09T18:03:11.018Z,100202.33
2024-05-09T18:05:39.542Z,100200.48
2024-05-09T18:08:08.030Z,100200.26
2024-05-09T18:10:38.765Z,100201.59
2024-05-09T18:13:08.628Z,100208.16
2024-05-09T18:15:37.187Z,100205.97
2024-05-09T18:18:05.453Z,100209.16
2024-05-09T18:20:41.442Z,100215.29
2024-05-09T18:23:14.252Z,100210.21
2024-05-09T18:25:42.977Z,100216.38
2024-05-09T18:28:10.669Z,100215.08
2024-05-09T18:30:38.751Z,100219.16
2024-05-09T18:33:07.995Z,100220.75
2024-05-09T18:35:36.505Z,100215.85
2024-05-09T18:38:06.040Z,100218.14
2024-05-09T18:40:36.686Z,100223.80
2024-05-09T18:43:07.560Z,100221.40
2024-05-09T18:45:38.028Z,100219.76
2024-05-09T18:48:08.172Z,100224.11
2024-05-09T18:50:39.449Z,100229.39
2024-05-09T18:53:10.674Z,100227.77
2024-05-09T18:55:39.374Z,100228.23
2024-05-09T18:58:07.092Z,100231.81
2024-05-09T19:00:37.949Z,100230.95
2024-05-09T19:03:10.467Z,100236.23
2024-05-09T19:05:41.475Z,100241.12
2024-05-09T19:08:09.537Z,100245.27
2024-05-09T19:10:37.496Z,100246.95
2024-05-09T19:13:09.338Z,100249.59
2024-05-09T19:15:40.751Z,100246.52
2024-05-09T19:18:09.561Z,100249.00
2024-05-09T19:20:37.784Z,100253.20
2024-05-09T19:23:06.408Z,100254.08
2024-05-09T19:25:34.876Z,100253.44
2024-05-09T19:28:03.143Z,100251.56
2024-05-09T19:30:38.560Z,100253.63
2024-05-09T19:33:11.149Z,100256.26
2024-05-09T19:35:39.859Z,100256.73
2024-05-09T19:38:07.553Z,100257.27
2024-05-09T19:40:35.793Z,100259.84
2024-05-09T19:43:04.763Z,100260.14
2024-05-09T19:45:34.598Z,100261.73
2024-05-09T19:48:03.504Z,100260.34
2024-05-09T19:50:39.322Z,100260.95
2024-05-09T19:53:11.282Z,100262.31
2024-05-09T19:55:39.742Z,100260.86
2024-05-09T19:58:08.656Z,100260.66
2024-05-09T20:00:39.454Z,100261.11
2024-05-09T20:03:10.698Z,100265.80
2024-05-09T20:05:39.259Z,100266.33
2024-05-09T20:08:07.407Z,100270.16
2024-05-09T20:10:36.262Z,100273.66
2024-05-09T20:13:06.392Z,100273.39
2024-05-09T20:15:35.572Z,100271.88
2024-05-09T20:18:03.793Z,100270.76
2024-05-09T20:20:38.021Z,100273.45
2024-05-09T20:23:10.233Z,100273.70
2024-05-09T20:25:38.043Z,100274.34
2024-05-09T20:28:08.400Z,100274.55
2024-05-09T20:30:36.663Z,100275.02
2024-05-09T20:33:07.087Z,100274.23
2024-05-09T20:35:36.196Z,100271.94
2024-05-09T20:38:04.451Z,100278.59
2024-05-09T20:40:36.265Z,100278.11
2024-05-09T20:43:07.963Z,100278.55
2024-05-09T20:45:36.106Z,100279.98
2024-05-09T20:48:04.432Z,100279.92
2024-05-09T20:50:37.972Z,100277.11
2024-05-09T20:53:09.518Z,100274.94
2024-05-09T20:55:37.312Z,100275.69
2024-05-09T20:58:05.122Z,100272.30
2024-05-09T21:00:40.135Z,100276.60
2024-05-09T21:05:35.285Z,100278.27
2024-05-09T21:08:03.255Z,100276.31
2024-05-09T21:10:33.338Z,100274.63
2024-05-09T21:13:02.778Z,100270.37
2024-05-09T21:15:31.569Z,100272.23
2024-05-09T21:17:59.550Z,100272.58
2024-05-09T21:22:57.848Z,100271.23
2024-05-09T21:25:25.855Z,100275.18
2024-05-09T21:27:53.451Z,100274.27
2024-05-09T21:30:31.646Z,100280.85
2024-05-09T21:33:13.468Z,100285.88
2024-05-09T21:35:43.449Z,100289.57
2024-05-09T21:38:11.376Z,100293.84
2024-05-09T21:40:39.161Z,100297.17
2024-05-09T21:43:07.194Z,100298.23
2024-05-09T21:45:35.353Z,100301.01
2024-05-09T21:48:03.502Z,100302.48
2024-05-09T21:50:37.187Z,100305.55
2024-05-09T21:53:09.042Z,100305.83
2024-05-09T21:55:36.530Z,100308.58
2024-05-09T21:58:04.282Z,100310.13
2024-05-09T22:00:36.624Z,100313.94
2024-05-09T22:03:10.521Z,100309.60
2024-05-09T22:05:41.625Z,100310.03
2024-05-09T22:08:09.572Z,100309.39
2024-05-09T22:10:37.567Z,100314.40
2024-05-09T22:13:06.370Z,100316.11
2024-05-09T22:15:35.458Z,100317.59
2024-05-09T22:18:03.967Z,100318.70
2024-05-09T22:20:37.095Z,100315.41
2024-05-09T22:23:08.339Z,100316.52
2024-05-09T22:25:38.322Z,100312.66
2024-05-09T22:28:06.301Z,100312.48
2024-05-09T22:30:37.929Z,100310.77
2024-05-09T22:33:08.438Z,100311.48
2024-05-09T22:35:37.056Z,100311.16
2024-05-09T22:38:04.656Z,100311.16
2024-05-09T22:40:41.697Z,100315.70
2024-05-09T22:43:23.755Z,100316.20
2024-05-09T22:45:54.577Z,100312.52
2024-05-09T22:48:23.684Z,100311.31
2024-05-09T22:50:51.860Z,100306.76
2024-05-09T22:53:21.518Z,100308.11
2024-05-09T22:55:48.899Z,100306.70
2024-05-09T22:58:16.418Z,100303.41
2024-05-09T23:00:44.041Z,100309.58
2024-05-09T23:03:11.733Z,100308.41
2024-05-09T23:05:39.458Z,100312.60
2024-05-09T23:08:07.184Z,100306.98
2024-05-09T23:10:37.605Z,100304.16
2024-05-09T23:13:08.917Z,100304.56
2024-05-09T23:15:38.468Z,100303.34
2024-05-09T23:18:07.071Z,100309.13
2024-05-09T23:20:38.559Z,100309.13
2024-05-09T23:23:08.612Z,100312.97
2024-05-09T23:25:36.614Z,100311.73
2024-05-09T23:28:04.487Z,100310.55
2024-05-09T23:30:37.927Z,100309.39
2024-05-09T23:33:09.705Z,100308.61
2024-05-09T23:35:38.212Z,100312.81
2024-05-09T23:38:05.663Z,100311.42
2024-05-09T23:40:39.315Z,100312.66
2024-05-09T23:43:10.170Z,100308.59
2024-05-09T23:45:38.101Z,100305.60
2024-05-09T23:48:06.138Z,100302.65
2024-05-09T23:50:37.006Z,100302.48
2024-05-09T23:53:07.753Z,100303.73
2024-05-09T23:55:36.695Z,100303.13
2024-05-09T23:58:04.384Z,100300.42
